sensor_id;sensor_type;location;lat;lon;timestamp;temperature;humidity
14551;DHT22;7362;50.956;4.184;2022-08-21T00:01:48;18.70;99.90
14551;DHT22;7362;50.956;4.184;2022-08-21T00:04:38;18.70;99.90
14551;DHT22;7362;50.956;4.184;2022-08-21T00:10:16;18.60;99.90
14551;DHT22;7362;50.956;4.184;2022-08-21T00:12:55;18.50;99.90
14551;DHT22;7362;50.956;4.184;2022-08-21T00:15:27;18.50;99.90
14551;DHT22;7362;50.956;4.184;2022-08-21T00:17:56;18.50;99.90
14551;DHT22;7362;50.956;4.184;2022-08-21T00:20:23;18.40;99.90
14551;DHT22;7362;50.956;4.184;2022-08-21T00:22:50;18.30;99.90
14551;DHT22;7362;50.956;4.184;2022-08-21T00:25:19;18.30;99.90
14551;DHT22;7362;50.956;4.184;2022-08-21T00:27:45;18.20;99.90
14551;DHT22;7362;50.956;4.184;2022-08-21T00:30:15;18.10;99.90
14551;DHT22;7362;50.956;4.184;2022-08-21T00:32:42;18.10;99.90
14551;DHT22;7362;50.956;4.184;2022-08-21T00:35:12;18.10;99.90
14551;DHT22;7362;50.956;4.184;2022-08-21T00:37:40;18.10;99.90
14551;DHT22;7362;50.956;4.184;2022-08-21T00:40:10;18.10;99.90
14551;DHT22;7362;50.956;4.184;2022-08-21T00:42:37;17.90;99.90
14551;DHT22;7362;50.956;4.184;2022-08-21T00:45:04;18.10;99.90
14551;DHT22;7362;50.956;4.184;2022-08-21T00:47:31;18.00;99.90
14551;DHT22;7362;50.956;4.184;2022-08-21T00:49:58;17.90;99.90
14551;DHT22;7362;50.956;4.184;2022-08-21T00:52:26;18.00;99.90
14551;DHT22;7362;50.956;4.184;2022-08-21T00:55:02;17.90;99.90
14551;DHT22;7362;50.956;4.184;2022-08-21T00:57:31;17.90;99.90
14551;DHT22;7362;50.956;4.184;2022-08-21T01:00:06;17.80;99.90
14551;DHT22;7362;50.956;4.184;2022-08-21T01:02:34;17.80;99.90
14551;DHT22;7362;50.956;4.184;2022-08-21T01:05:02;17.90;99.90
14551;DHT22;7362;50.956;4.184;2022-08-21T01:07:29;17.80;99.90
14551;DHT22;7362;50.956;4.184;2022-08-21T01:09:55;17.80;99.90
14551;DHT22;7362;50.956;4.184;2022-08-21T01:12:23;17.80;99.90
14551;DHT22;7362;50.956;4.184;2022-08-21T01:14:49;17.80;99.90
14551;DHT22;7362;50.956;4.184;2022-08-21T01:17:15;17.80;99.90
14551;DHT22;7362;50.956;4.184;2022-08-21T01:19:41;17.80;99.90
14551;DHT22;7362;50.956;4.184;2022-08-21T01:22:07;17.70;99.90
14551;DHT22;7362;50.956;4.184;2022-08-21T01:24:33;17.70;99.90
14551;DHT22;7362;50.956;4.184;2022-08-21T01:27:01;17.60;99.90
14551;DHT22;7362;50.956;4.184;2022-08-21T01:29:48;17.70;99.90
14551;DHT22;7362;50.956;4.184;2022-08-21T01:32:18;17.70;99.90
14551;DHT22;7362;50.956;4.184;2022-08-21T01:34:46;17.60;99.90
14551;DHT22;7362;50.956;4.184;2022-08-21T01:37:17;17.60;99.90
14551;DHT22;7362;50.956;4.184;2022-08-21T01:39:45;17.50;99.90
14551;DHT22;7362;50.956;4.184;2022-08-21T01:42:10;17.60;99.90
14551;DHT22;7362;50.956;4.184;2022-08-21T01:44:37;17.50;99.90
14551;DHT22;7362;50.956;4.184;2022-08-21T01:47:07;17.50;99.90
14551;DHT22;7362;50.956;4.184;2022-08-21T01:49:42;17.50;99.90
14551;DHT22;7362;50.956;4.184;2022-08-21T01:52:09;17.50;99.90
14551;DHT22;7362;50.956;4.184;2022-08-21T01:54:39;17.50;99.90
14551;DHT22;7362;50.956;4.184;2022-08-21T02:00:26;17.50;99.90
14551;DHT22;7362;50.956;4.184;2022-08-21T02:03:02;17.40;99.90
14551;DHT22;7362;50.956;4.184;2022-08-21T02:05:38;17.40;99.90
14551;DHT22;7362;50.956;4.184;2022-08-21T02:08:06;17.40;99.90
14551;DHT22;7362;50.956;4.184;2022-08-21T02:10:32;17.40;99.90
14551;DHT22;7362;50.956;4.184;2022-08-21T02:12:59;17.40;99.90
14551;DHT22;7362;50.956;4.184;2022-08-21T02:15:27;17.40;99.90
14551;DHT22;7362;50.956;4.184;2022-08-21T02:17:55;17.30;99.90
14551;DHT22;7362;50.956;4.184;2022-08-21T02:20:37;17.30;99.90
14551;DHT22;7362;50.956;4.184;2022-08-21T02:23:04;17.30;99.90
14551;DHT22;7362;50.956;4.184;2022-08-21T02:25:31;17.30;99.90
14551;DHT22;7362;50.956;4.184;2022-08-21T02:27:59;17.20;99.90
14551;DHT22;7362;50.956;4.184;2022-08-21T02:30:29;17.20;99.90
14551;DHT22;7362;50.956;4.184;2022-08-21T02:33:12;17.20;99.90
14551;DHT22;7362;50.956;4.184;2022-08-21T02:35:39;17.20;99.90
14551;DHT22;7362;50.956;4.184;2022-08-21T02:38:09;17.20;99.90
14551;DHT22;7362;50.956;4.184;2022-08-21T02:40:41;17.20;99.90
14551;DHT22;7362;50.956;4.184;2022-08-21T02:43:07;17.20;99.90
14551;DHT22;7362;50.956;4.184;2022-08-21T02:45:35;17.20;99.90
14551;DHT22;7362;50.956;4.184;2022-08-21T02:48:04;17.10;99.90
14551;DHT22;7362;50.956;4.184;2022-08-21T02:50:37;17.10;99.90
14551;DHT22;7362;50.956;4.184;2022-08-21T02:53:04;17.10;99.90
14551;DHT22;7362;50.956;4.184;2022-08-21T02:55:31;17.10;99.90
14551;DHT22;7362;50.956;4.184;2022-08-21T02:57:59;17.00;99.90
14551;DHT22;7362;50.956;4.184;2022-08-21T03:00:27;17.00;99.90
14551;DHT22;7362;50.956;4.184;2022-08-21T03:02:53;16.90;99.90
14551;DHT22;7362;50.956;4.184;2022-08-21T03:05:26;16.90;99.90
14551;DHT22;7362;50.956;4.184;2022-08-21T03:07:54;17.00;99.90
14551;DHT22;7362;50.956;4.184;2022-08-21T03:10:21;16.90;99.90
14551;DHT22;7362;50.956;4.184;2022-08-21T03:12:47;17.00;99.90
14551;DHT22;7362;50.956;4.184;2022-08-21T03:15:16;16.90;99.90
14551;DHT22;7362;50.956;4.184;2022-08-21T03:17:43;17.00;99.90
14551;DHT22;7362;50.956;4.184;2022-08-21T03:20:12;17.00;99.90
14551;DHT22;7362;50.956;4.184;2022-08-21T03:22:45;16.90;99.90
14551;DHT22;7362;50.956;4.184;2022-08-21T03:28:33;16.80;99.90
14551;DHT22;7362;50.956;4.184;2022-08-21T03:34:21;16.70;99.90
14551;DHT22;7362;50.956;4.184;2022-08-21T03:36:50;16.70;99.90
14551;DHT22;7362;50.956;4.184;2022-08-21T03:39:19;16.70;99.90
14551;DHT22;7362;50.956;4.184;2022-08-21T03:41:50;16.60;99.90
14551;DHT22;7362;50.956;4.184;2022-08-21T03:44:16;16.60;99.90
14551;DHT22;7362;50.956;4.184;2022-08-21T03:46:42;16.70;99.90
14551;DHT22;7362;50.956;4.184;2022-08-21T03:49:08;16.80;99.90
14551;DHT22;7362;50.956;4.184;2022-08-21T03:51:34;16.70;99.90
14551;DHT22;7362;50.956;4.184;2022-08-21T03:54:03;16.70;99.90
14551;DHT22;7362;50.956;4.184;2022-08-21T03:56:29;16.70;99.90
14551;DHT22;7362;50.956;4.184;2022-08-21T03:58:54;16.70;99.90
14551;DHT22;7362;50.956;4.184;2022-08-21T04:01:22;16.70;99.90
14551;DHT22;7362;50.956;4.184;2022-08-21T04:03:48;16.70;99.90
14551;DHT22;7362;50.956;4.184;2022-08-21T04:06:14;16.70;99.90
14551;DHT22;7362;50.956;4.184;2022-08-21T04:08:41;16.70;99.90
14551;DHT22;7362;50.956;4.184;2022-08-21T04:14:47;16.60;99.90
14551;DHT22;7362;50.956;4.184;2022-08-21T04:17:17;16.60;99.90
14551;DHT22;7362;50.956;4.184;2022-08-21T04:19:43;16.60;99.90
14551;DHT22;7362;50.956;4.184;2022-08-21T04:22:10;16.60;99.90
14551;DHT22;7362;50.956;4.184;2022-08-21T04:24:36;16.60;99.90
14551;DHT22;7362;50.956;4.184;2022-08-21T04:30:24;16.60;99.90
14551;DHT22;7362;50.956;4.184;2022-08-21T04:36:21;16.50;99.90
14551;DHT22;7362;50.956;4.184;2022-08-21T04:38:50;16.60;99.90
14551;DHT22;7362;50.956;4.184;2022-08-21T04:41:31;16.50;99.90
14551;DHT22;7362;50.956;4.184;2022-08-21T04:43:56;16.50;99.90
14551;DHT22;7362;50.956;4.184;2022-08-21T04:46:32;16.40;99.90
14551;DHT22;7362;50.956;4.184;2022-08-21T04:49:08;16.40;99.90
14551;DHT22;7362;50.956;4.184;2022-08-21T04:51:45;16.40;99.90
14551;DHT22;7362;50.956;4.184;2022-08-21T04:54:20;16.40;99.90
14551;DHT22;7362;50.956;4.184;2022-08-21T05:01:59;16.50;99.90
14551;DHT22;7362;50.956;4.184;2022-08-21T05:04:31;16.40;99.90
14551;DHT22;7362;50.956;4.184;2022-08-21T05:07:02;16.40;99.90
14551;DHT22;7362;50.956;4.184;2022-08-21T05:09:32;16.40;99.90
14551;DHT22;7362;50.956;4.184;2022-08-21T05:12:01;16.40;99.90
14551;DHT22;7362;50.956;4.184;2022-08-21T05:14:28;16.40;99.90
14551;DHT22;7362;50.956;4.184;2022-08-21T05:17:02;16.40;99.90
14551;DHT22;7362;50.956;4.184;2022-08-21T05:19:38;16.40;99.90
14551;DHT22;7362;50.956;4.184;2022-08-21T05:22:36;16.40;99.90
14551;DHT22;7362;50.956;4.184;2022-08-21T06:34:57;16.80;99.90
14551;DHT22;7362;50.956;4.184;2022-08-21T06:37:24;16.90;99.90
14551;DHT22;7362;50.956;4.184;2022-08-21T06:39:49;16.90;99.90
14551;DHT22;7362;50.956;4.184;2022-08-21T06:42:18;17.00;99.90
14551;DHT22;7362;50.956;4.184;2022-08-21T06:44:44;17.10;99.90
14551;DHT22;7362;50.956;4.184;2022-08-21T06:47:09;17.20;99.90
14551;DHT22;7362;50.956;4.184;2022-08-21T06:49:37;17.20;99.90
14551;DHT22;7362;50.956;4.184;2022-08-21T06:52:03;17.20;99.90
14551;DHT22;7362;50.956;4.184;2022-08-21T06:54:33;17.30;99.90
14551;DHT22;7362;50.956;4.184;2022-08-21T06:56:59;17.40;99.90
14551;DHT22;7362;50.956;4.184;2022-08-21T06:59:25;17.50;99.90
14551;DHT22;7362;50.956;4.184;2022-08-21T07:01:50;17.50;99.90
14551;DHT22;7362;50.956;4.184;2022-08-21T07:04:16;17.50;99.90
14551;DHT22;7362;50.956;4.184;2022-08-21T07:06:42;17.60;99.90
14551;DHT22;7362;50.956;4.184;2022-08-21T07:09:08;17.70;99.90
14551;DHT22;7362;50.956;4.184;2022-08-21T07:11:37;17.70;99.90
14551;DHT22;7362;50.956;4.184;2022-08-21T07:14:04;17.70;99.90
14551;DHT22;7362;50.956;4.184;2022-08-21T07:16:29;17.80;99.90
14551;DHT22;7362;50.956;4.184;2022-08-21T07:18:55;17.80;99.90
14551;DHT22;7362;50.956;4.184;2022-08-21T07:21:23;17.90;99.90
14551;DHT22;7362;50.956;4.184;2022-08-21T07:23:50;18.00;99.90
14551;DHT22;7362;50.956;4.184;2022-08-21T07:26:18;18.10;99.90
14551;DHT22;7362;50.956;4.184;2022-08-21T07:28:55;18.20;99.90
14551;DHT22;7362;50.956;4.184;2022-08-21T07:31:23;18.30;99.90
14551;DHT22;7362;50.956;4.184;2022-08-21T07:33:49;18.40;99.90
14551;DHT22;7362;50.956;4.184;2022-08-21T07:36:19;18.30;99.90
14551;DHT22;7362;50.956;4.184;2022-08-21T07:38:45;18.30;99.90
14551;DHT22;7362;50.956;4.184;2022-08-21T07:41:25;18.40;99.90
14551;DHT22;7362;50.956;4.184;2022-08-21T07:43:50;18.50;99.90
14551;DHT22;7362;50.956;4.184;2022-08-21T07:46:17;18.60;99.90
14551;DHT22;7362;50.956;4.184;2022-08-21T07:48:43;18.60;99.90
14551;DHT22;7362;50.956;4.184;2022-08-21T08:22:56;20.70;99.90
14551;DHT22;7362;50.956;4.184;2022-08-21T08:28:46;20.60;99.90
14551;DHT22;7362;50.956;4.184;2022-08-21T08:34:31;20.60;99.90
14551;DHT22;7362;50.956;4.184;2022-08-21T08:36:59;20.60;99.90
14551;DHT22;7362;50.956;4.184;2022-08-21T08:39:28;20.60;99.90
14551;DHT22;7362;50.956;4.184;2022-08-21T08:44:30;20.30;99.90
14551;DHT22;7362;50.956;4.184;2022-08-21T08:47:00;20.40;99.90
14551;DHT22;7362;50.956;4.184;2022-08-21T08:49:30;20.60;99.90
14551;DHT22;7362;50.956;4.184;2022-08-21T08:52:07;21.00;99.90
14551;DHT22;7362;50.956;4.184;2022-08-21T09:01:26;24.80;99.90
14551;DHT22;7362;50.956;4.184;2022-08-21T09:03:55;26.80;99.90
14551;DHT22;7362;50.956;4.184;2022-08-21T09:19:10;32.00;99.90
14551;DHT22;7362;50.956;4.184;2022-08-21T09:25:02;33.10;96.60
14551;DHT22;7362;50.956;4.184;2022-08-21T09:27:31;31.50;97.60
14551;DHT22;7362;50.956;4.184;2022-08-21T09:29:59;30.10;99.00
14551;DHT22;7362;50.956;4.184;2022-08-21T09:32:30;28.90;99.90
14551;DHT22;7362;50.956;4.184;2022-08-21T09:45:38;30.20;99.90
14551;DHT22;7362;50.956;4.184;2022-08-21T09:48:38;29.80;99.50
14551;DHT22;7362;50.956;4.184;2022-08-21T09:51:15;30.00;99.50
14551;DHT22;7362;50.956;4.184;2022-08-21T09:53:49;30.10;98.80
14551;DHT22;7362;50.956;4.184;2022-08-21T09:56:28;28.40;99.90
14551;DHT22;7362;50.956;4.184;2022-08-21T09:59:30;26.80;99.90
14551;DHT22;7362;50.956;4.184;2022-08-21T10:02:03;25.40;99.90
14551;DHT22;7362;50.956;4.184;2022-08-21T10:04:35;24.80;99.90
14551;DHT22;7362;50.956;4.184;2022-08-21T10:07:15;25.30;99.90
14551;DHT22;7362;50.956;4.184;2022-08-21T10:09:44;26.20;99.90
14551;DHT22;7362;50.956;4.184;2022-08-21T10:12:20;26.70;99.90
14551;DHT22;7362;50.956;4.184;2022-08-21T10:14:54;26.30;99.90
14551;DHT22;7362;50.956;4.184;2022-08-21T10:30:29;31.40;97.70
14551;DHT22;7362;50.956;4.184;2022-08-21T10:36:26;30.80;97.80
14551;DHT22;7362;50.956;4.184;2022-08-21T10:39:26;29.10;98.60
14551;DHT22;7362;50.956;4.184;2022-08-21T10:47:42;29.50;99.90
14551;DHT22;7362;50.956;4.184;2022-08-21T10:53:28;31.00;97.60
14551;DHT22;7362;50.956;4.184;2022-08-21T10:56:17;32.00;96.00
14551;DHT22;7362;50.956;4.184;2022-08-21T11:07:44;28.00;99.70
14551;DHT22;7362;50.956;4.184;2022-08-21T11:10:32;27.10;99.90
14551;DHT22;7362;50.956;4.184;2022-08-21T11:15:33;26.60;99.90
14551;DHT22;7362;50.956;4.184;2022-08-21T11:18:26;26.30;99.90
14551;DHT22;7362;50.956;4.184;2022-08-21T11:21:25;27.30;99.90
14551;DHT22;7362;50.956;4.184;2022-08-21T11:29:37;27.30;99.90
14551;DHT22;7362;50.956;4.184;2022-08-21T11:44:07;29.30;99.50
14551;DHT22;7362;50.956;4.184;2022-08-21T11:47:02;29.60;98.50
14551;DHT22;7362;50.956;4.184;2022-08-21T11:52:40;29.50;98.60
14551;DHT22;7362;50.956;4.184;2022-08-21T11:55:26;29.70;98.10
14551;DHT22;7362;50.956;4.184;2022-08-21T12:01:19;30.00;98.50
14551;DHT22;7362;50.956;4.184;2022-08-21T12:07:15;31.30;96.20
14551;DHT22;7362;50.956;4.184;2022-08-21T12:10:01;32.50;95.10
14551;DHT22;7362;50.956;4.184;2022-08-21T12:12:38;34.50;93.00
14551;DHT22;7362;50.956;4.184;2022-08-21T12:15:15;35.30;90.60
14551;DHT22;7362;50.956;4.184;2022-08-21T12:17:57;36.10;87.30
14551;DHT22;7362;50.956;4.184;2022-08-21T12:21:31;35.40;86.10
14551;DHT22;7362;50.956;4.184;2022-08-21T12:24:00;33.40;88.10
14551;DHT22;7362;50.956;4.184;2022-08-21T12:30:17;29.90;92.40
14551;DHT22;7362;50.956;4.184;2022-08-21T12:36:21;29.20;93.30
14551;DHT22;7362;50.956;4.184;2022-08-21T12:39:04;29.20;94.10
14551;DHT22;7362;50.956;4.184;2022-08-21T12:42:16;30.60;93.10
14551;DHT22;7362;50.956;4.184;2022-08-21T12:45:03;31.50;91.50
14551;DHT22;7362;50.956;4.184;2022-08-21T12:50:54;30.60;90.80
14551;DHT22;7362;50.956;4.184;2022-08-21T12:56:37;28.20;93.60
14551;DHT22;7362;50.956;4.184;2022-08-21T12:59:32;27.40;95.00
14551;DHT22;7362;50.956;4.184;2022-08-21T13:02:49;26.80;96.00
14551;DHT22;7362;50.956;4.184;2022-08-21T13:05:37;26.40;96.80
14551;DHT22;7362;50.956;4.184;2022-08-21T13:08:26;26.50;96.80
14551;DHT22;7362;50.956;4.184;2022-08-21T13:11:04;26.30;96.60
14551;DHT22;7362;50.956;4.184;2022-08-21T13:13:30;26.60;97.30
14551;DHT22;7362;50.956;4.184;2022-08-21T13:16:05;26.40;98.00
14551;DHT22;7362;50.956;4.184;2022-08-21T13:18:40;26.60;97.50
14551;DHT22;7362;50.956;4.184;2022-08-21T13:21:50;26.30;98.20
14551;DHT22;7362;50.956;4.184;2022-08-21T13:24:48;26.40;98.20
14551;DHT22;7362;50.956;4.184;2022-08-21T13:30:20;26.60;98.40
14551;DHT22;7362;50.956;4.184;2022-08-21T13:33:05;26.60;98.40
14551;DHT22;7362;50.956;4.184;2022-08-21T13:36:05;26.90;97.90
14551;DHT22;7362;50.956;4.184;2022-08-21T13:38:35;27.00;97.40
14551;DHT22;7362;50.956;4.184;2022-08-21T13:41:10;27.30;97.30
14551;DHT22;7362;50.956;4.184;2022-08-21T13:43:45;26.80;97.50
14551;DHT22;7362;50.956;4.184;2022-08-21T13:46:13;26.60;98.00
14551;DHT22;7362;50.956;4.184;2022-08-21T13:48:41;26.60;98.10
14551;DHT22;7362;50.956;4.184;2022-08-21T13:51:10;26.50;97.60
14551;DHT22;7362;50.956;4.184;2022-08-21T13:53:47;26.70;97.10
14551;DHT22;7362;50.956;4.184;2022-08-21T13:57:14;27.30;96.50
14551;DHT22;7362;50.956;4.184;2022-08-21T13:59:32;28.00;95.80
14551;DHT22;7362;50.956;4.184;2022-08-21T14:02:15;27.50;96.60
14551;DHT22;7362;50.956;4.184;2022-08-21T14:05:04;27.70;96.50
14551;DHT22;7362;50.956;4.184;2022-08-21T14:07:40;27.20;96.00
14551;DHT22;7362;50.956;4.184;2022-08-21T14:10:30;26.90;96.40
14551;DHT22;7362;50.956;4.184;2022-08-21T14:13:28;27.00;97.10
14551;DHT22;7362;50.956;4.184;2022-08-21T14:16:03;26.90;97.00
14551;DHT22;7362;50.956;4.184;2022-08-21T14:21:58;26.30;97.80
14551;DHT22;7362;50.956;4.184;2022-08-21T14:24:29;25.90;97.70
14551;DHT22;7362;50.956;4.184;2022-08-21T14:27:05;25.80;98.20
14551;DHT22;7362;50.956;4.184;2022-08-21T14:29:41;26.00;98.60
14551;DHT22;7362;50.956;4.184;2022-08-21T14:32:49;25.90;98.30
14551;DHT22;7362;50.956;4.184;2022-08-21T14:35:22;25.80;99.00
14551;DHT22;7362;50.956;4.184;2022-08-21T14:38:29;25.80;99.30
14551;DHT22;7362;50.956;4.184;2022-08-21T14:41:35;25.90;98.90
14551;DHT22;7362;50.956;4.184;2022-08-21T14:44:04;25.90;98.90
14551;DHT22;7362;50.956;4.184;2022-08-21T14:49:19;26.10;99.10
14551;DHT22;7362;50.956;4.184;2022-08-21T14:55:01;26.00;99.40
14551;DHT22;7362;50.956;4.184;2022-08-21T14:57:30;26.10;99.50
14551;DHT22;7362;50.956;4.184;2022-08-21T14:59:57;26.10;99.10
14551;DHT22;7362;50.956;4.184;2022-08-21T15:02:28;26.00;98.80
14551;DHT22;7362;50.956;4.184;2022-08-21T15:04:54;26.10;98.80
14551;DHT22;7362;50.956;4.184;2022-08-21T15:07:22;26.20;97.90
14551;DHT22;7362;50.956;4.184;2022-08-21T15:09:49;26.60;97.80
14551;DHT22;7362;50.956;4.184;2022-08-21T15:12:17;26.60;97.90
14551;DHT22;7362;50.956;4.184;2022-08-21T15:18:04;26.40;98.50
14551;DHT22;7362;50.956;4.184;2022-08-21T15:23:54;26.20;96.90
14551;DHT22;7362;50.956;4.184;2022-08-21T15:41:54;25.60;98.50
14551;DHT22;7362;50.956;4.184;2022-08-21T15:44:21;25.60;98.80
14551;DHT22;7362;50.956;4.184;2022-08-21T15:46:59;25.70;99.00
14551;DHT22;7362;50.956;4.184;2022-08-21T15:49:29;25.50;98.60
14551;DHT22;7362;50.956;4.184;2022-08-21T15:52:03;25.20;99.00
14551;DHT22;7362;50.956;4.184;2022-08-21T15:54:31;25.10;99.60
14551;DHT22;7362;50.956;4.184;2022-08-21T15:56:59;25.00;99.60
14551;DHT22;7362;50.956;4.184;2022-08-21T16:02:17;25.10;99.40
14551;DHT22;7362;50.956;4.184;2022-08-21T16:05:09;25.30;99.30
14551;DHT22;7362;50.956;4.184;2022-08-21T16:07:45;25.30;99.10
14551;DHT22;7362;50.956;4.184;2022-08-21T16:10:20;25.10;99.40
14551;DHT22;7362;50.956;4.184;2022-08-21T16:13:03;25.00;99.90
14551;DHT22;7362;50.956;4.184;2022-08-21T16:16:25;25.00;99.90
14551;DHT22;7362;50.956;4.184;2022-08-21T16:19:14;24.90;99.90
14551;DHT22;7362;50.956;4.184;2022-08-21T16:21:45;25.10;99.90
14551;DHT22;7362;50.956;4.184;2022-08-21T16:24:12;25.00;99.90
14551;DHT22;7362;50.956;4.184;2022-08-21T16:27:06;24.90;99.90
14551;DHT22;7362;50.956;4.184;2022-08-21T16:29:46;24.90;99.90
14551;DHT22;7362;50.956;4.184;2022-08-21T16:32:34;25.00;99.50
14551;DHT22;7362;50.956;4.184;2022-08-21T16:35:04;24.90;99.80
14551;DHT22;7362;50.956;4.184;2022-08-21T16:37:43;24.80;99.90
14551;DHT22;7362;50.956;4.184;2022-08-21T16:40:25;24.80;99.90
14551;DHT22;7362;50.956;4.184;2022-08-21T16:48:07;24.90;99.90
14551;DHT22;7362;50.956;4.184;2022-08-21T16:50:35;25.00;99.90
14551;DHT22;7362;50.956;4.184;2022-08-21T16:53:27;25.00;99.90
14551;DHT22;7362;50.956;4.184;2022-08-21T17:11:47;24.90;99.90
14551;DHT22;7362;50.956;4.184;2022-08-21T17:32:25;24.40;99.90
14551;DHT22;7362;50.956;4.184;2022-08-21T17:40:02;24.00;99.90
14551;DHT22;7362;50.956;4.184;2022-08-21T17:42:31;24.20;99.90
14551;DHT22;7362;50.956;4.184;2022-08-21T17:45:17;24.10;99.90
14551;DHT22;7362;50.956;4.184;2022-08-21T17:47:43;24.20;99.90
14551;DHT22;7362;50.956;4.184;2022-08-21T17:59:31;23.90;99.90
14551;DHT22;7362;50.956;4.184;2022-08-21T18:02:22;23.80;99.90
14551;DHT22;7362;50.956;4.184;2022-08-21T18:04:49;23.70;99.90
14551;DHT22;7362;50.956;4.184;2022-08-21T18:10:43;23.50;99.90
14551;DHT22;7362;50.956;4.184;2022-08-21T18:13:34;23.50;99.90
14551;DHT22;7362;50.956;4.184;2022-08-21T18:16:22;23.50;99.90
14551;DHT22;7362;50.956;4.184;2022-08-21T18:22:11;23.40;99.90
14551;DHT22;7362;50.956;4.184;2022-08-21T18:24:38;23.50;99.90
14551;DHT22;7362;50.956;4.184;2022-08-21T18:27:13;23.50;99.90
14551;DHT22;7362;50.956;4.184;2022-08-21T18:29:41;23.40;99.90
14551;DHT22;7362;50.956;4.184;2022-08-21T18:32:21;23.40;99.90
14551;DHT22;7362;50.956;4.184;2022-08-21T18:34:48;23.30;99.90
14551;DHT22;7362;50.956;4.184;2022-08-21T18:37:17;23.30;99.90
14551;DHT22;7362;50.956;4.184;2022-08-21T18:39:48;23.30;99.90
14551;DHT22;7362;50.956;4.184;2022-08-21T18:42:26;23.20;99.90
14551;DHT22;7362;50.956;4.184;2022-08-21T18:45:08;23.20;99.90
14551;DHT22;7362;50.956;4.184;2022-08-21T18:47:44;23.00;99.90
14551;DHT22;7362;50.956;4.184;2022-08-21T18:58:44;23.20;99.90
14551;DHT22;7362;50.956;4.184;2022-08-21T19:10:16;23.40;99.90
14551;DHT22;7362;50.956;4.184;2022-08-21T19:18:49;23.10;99.90
14551;DHT22;7362;50.956;4.184;2022-08-21T19:21:42;23.10;99.90
14551;DHT22;7362;50.956;4.184;2022-08-21T19:24:08;23.00;99.90
14551;DHT22;7362;50.956;4.184;2022-08-21T19:26:34;22.80;99.90
14551;DHT22;7362;50.956;4.184;2022-08-21T19:29:05;22.70;99.90
14551;DHT22;7362;50.956;4.184;2022-08-21T19:31:38;22.70;99.90
14551;DHT22;7362;50.956;4.184;2022-08-21T19:34:17;22.70;99.90
14551;DHT22;7362;50.956;4.184;2022-08-21T19:50:07;22.50;99.90
14551;DHT22;7362;50.956;4.184;2022-08-21T19:52:37;22.40;99.90
14551;DHT22;7362;50.956;4.184;2022-08-21T19:55:15;22.30;99.90
14551;DHT22;7362;50.956;4.184;2022-08-21T19:57:45;22.30;99.90
14551;DHT22;7362;50.956;4.184;2022-08-21T20:00:20;22.30;99.90
14551;DHT22;7362;50.956;4.184;2022-08-21T20:06:11;22.30;99.90
14551;DHT22;7362;50.956;4.184;2022-08-21T20:09:12;22.30;99.90
14551;DHT22;7362;50.956;4.184;2022-08-21T20:20:11;21.90;99.90
14551;DHT22;7362;50.956;4.184;2022-08-21T20:22:40;21.90;99.90
14551;DHT22;7362;50.956;4.184;2022-08-21T20:32:54;21.80;99.90
14551;DHT22;7362;50.956;4.184;2022-08-21T20:35:26;21.80;99.90
14551;DHT22;7362;50.956;4.184;2022-08-21T21:00:10;21.50;99.90
14551;DHT22;7362;50.956;4.184;2022-08-21T21:13:28;21.50;99.90
14551;DHT22;7362;50.956;4.184;2022-08-21T21:16:06;21.40;99.90
14551;DHT22;7362;50.956;4.184;2022-08-21T21:18:49;21.50;99.90
14551;DHT22;7362;50.956;4.184;2022-08-21T21:24:06;21.50;99.90
14551;DHT22;7362;50.956;4.184;2022-08-21T21:30:11;21.50;99.90
14551;DHT22;7362;50.956;4.184;2022-08-21T21:32:39;21.50;99.90
14551;DHT22;7362;50.956;4.184;2022-08-21T21:38:11;21.40;99.90
14551;DHT22;7362;50.956;4.184;2022-08-21T21:41:20;21.20;99.90
14551;DHT22;7362;50.956;4.184;2022-08-21T21:44:15;21.30;99.90
14551;DHT22;7362;50.956;4.184;2022-08-21T21:46:51;21.20;99.90
14551;DHT22;7362;50.956;4.184;2022-08-21T21:49:35;21.20;99.90
14551;DHT22;7362;50.956;4.184;2022-08-21T22:00:26;21.20;99.90
14551;DHT22;7362;50.956;4.184;2022-08-21T22:05:58;21.30;99.90
14551;DHT22;7362;50.956;4.184;2022-08-21T22:09:34;21.30;99.90
14551;DHT22;7362;50.956;4.184;2022-08-21T22:15:31;21.00;99.90
14551;DHT22;7362;50.956;4.184;2022-08-21T22:17:58;21.00;99.90
14551;DHT22;7362;50.956;4.184;2022-08-21T22:21:04;21.10;99.90
14551;DHT22;7362;50.956;4.184;2022-08-21T22:28:49;21.10;99.90
14551;DHT22;7362;50.956;4.184;2022-08-21T22:31:27;21.10;99.90
14551;DHT22;7362;50.956;4.184;2022-08-21T22:34:11;21.10;99.90
14551;DHT22;7362;50.956;4.184;2022-08-21T22:36:47;20.90;99.90
14551;DHT22;7362;50.956;4.184;2022-08-21T22:42:06;21.10;99.90
14551;DHT22;7362;50.956;4.184;2022-08-21T22:44:50;21.10;99.90
14551;DHT22;7362;50.956;4.184;2022-08-21T22:47:40;21.10;99.90
14551;DHT22;7362;50.956;4.184;2022-08-21T22:50:29;21.00;99.90
14551;DHT22;7362;50.956;4.184;2022-08-21T22:53:00;20.80;99.90
14551;DHT22;7362;50.956;4.184;2022-08-21T22:58:21;21.00;99.90
14551;DHT22;7362;50.956;4.184;2022-08-21T23:03:46;21.00;99.90
14551;DHT22;7362;50.956;4.184;2022-08-21T23:06:48;21.00;99.90
14551;DHT22;7362;50.956;4.184;2022-08-21T23:09:44;21.20;99.90
14551;DHT22;7362;50.956;4.184;2022-08-21T23:12:29;21.20;99.90
14551;DHT22;7362;50.956;4.184;2022-08-21T23:14:55;21.20;99.90
14551;DHT22;7362;50.956;4.184;2022-08-21T23:17:46;21.20;99.90
14551;DHT22;7362;50.956;4.184;2022-08-21T23:20:24;21.20;99.90
14551;DHT22;7362;50.956;4.184;2022-08-21T23:23:01;21.20;99.90
14551;DHT22;7362;50.956;4.184;2022-08-21T23:33:59;20.80;99.90
14551;DHT22;7362;50.956;4.184;2022-08-21T23:37:01;20.80;99.90
14551;DHT22;7362;50.956;4.184;2022-08-21T23:57:39;21.00;99.90
